sensor_id;sensor_type;location;lat;lon;timestamp;noise_LAeq;noise_LA_min;noise_LA_max;noise_LA01;noise_LA95
46749;Laerm;33775;47.992;11.864;2023-02-16T00:00:19;38.10;29.92;40.03;;
46749;Laerm;33775;47.992;11.864;2023-02-16T00:02:45;38.36;33.55;40.23;;
46749;Laerm;33775;47.992;11.864;2023-02-16T00:07:47;38.63;34.31;40.23;;
46749;Laerm;33775;47.992;11.864;2023-02-16T00:10:13;38.59;34.31;40.33;;
46749;Laerm;33775;47.992;11.864;2023-02-16T00:12:38;38.43;33.44;40.13;;
46749;Laerm;33775;47.992;11.864;2023-02-16T00:15:22;38.44;32.93;40.03;;
46749;Laerm;33775;47.992;11.864;2023-02-16T00:17:47;38.60;34.31;40.23;;
46749;Laerm;33775;47.992;11.864;2023-02-16T00:20:13;38.61;34.31;40.33;;
46749;Laerm;33775;47.992;11.864;2023-02-16T00:22:38;38.56;34.31;40.23;;
46749;Laerm;33775;47.992;11.864;2023-02-16T00:25:03;38.51;34.31;40.03;;
46749;Laerm;33775;47.992;11.864;2023-02-16T00:27:29;38.45;35.04;40.13;;
46749;Laerm;33775;47.992;11.864;2023-02-16T00:29:54;38.47;33.44;40.33;;
46749;Laerm;33775;47.992;11.864;2023-02-16T00:32:19;38.52;34.69;40.33;;
46749;Laerm;33775;47.992;11.864;2023-02-16T00:34:44;38.50;33.90;40.33;;
46749;Laerm;33775;47.992;11.864;2023-02-16T00:37:11;38.49;35.04;40.23;;
46749;Laerm;33775;47.992;11.864;2023-02-16T00:39:37;38.46;32.93;40.23;;
46749;Laerm;33775;47.992;11.864;2023-02-16T00:42:19;38.30;33.90;40.03;;
46749;Laerm;33775;47.992;11.864;2023-02-16T00:44:48;38.17;33.44;39.92;;
46749;Laerm;33775;47.992;11.864;2023-02-16T00:47:24;38.08;32.93;40.13;;
46749;Laerm;33775;47.992;11.864;2023-02-16T00:49:52;38.34;33.44;40.13;;
46749;Laerm;33775;47.992;11.864;2023-02-16T00:52:37;38.53;34.31;40.23;;
46749;Laerm;33775;47.992;11.864;2023-02-16T00:55:06;38.62;35.04;40.27;;
46749;Laerm;33775;47.992;11.864;2023-02-16T00:57:37;38.56;34.69;40.33;;
46749;Laerm;33775;47.992;11.864;2023-02-16T01:00:10;38.45;33.44;40.23;;
46749;Laerm;33775;47.992;11.864;2023-02-16T01:02:36;38.38;33.44;40.13;;
46749;Laerm;33775;47.992;11.864;2023-02-16T01:05:01;38.47;33.44;40.13;;
46749;Laerm;33775;47.992;11.864;2023-02-16T01:07:27;38.52;34.31;40.33;;
46749;Laerm;33775;47.992;11.864;2023-02-16T01:10:11;38.49;31.68;40.33;;
46749;Laerm;33775;47.992;11.864;2023-02-16T01:12:55;38.44;33.90;40.13;;
46749;Laerm;33775;47.992;11.864;2023-02-16T01:15:21;38.34;33.90;40.23;;
46749;Laerm;33775;47.992;11.864;2023-02-16T01:17:48;38.24;33.44;40.13;;
46749;Laerm;33775;47.992;11.864;2023-02-16T01:20:14;38.38;33.90;40.13;;
46749;Laerm;33775;47.992;11.864;2023-02-16T01:22:39;38.53;34.34;40.23;;
46749;Laerm;33775;47.992;11.864;2023-02-16T01:25:05;38.55;32.93;40.23;;
46749;Laerm;33775;47.992;11.864;2023-02-16T01:27:30;38.51;34.69;40.33;;
46749;Laerm;33775;47.992;11.864;2023-02-16T01:29:55;38.45;34.31;40.62;;
46749;Laerm;33775;47.992;11.864;2023-02-16T01:32:20;38.44;32.35;40.13;;
46749;Laerm;33775;47.992;11.864;2023-02-16T01:34:45;38.58;35.04;40.23;;
46749;Laerm;33775;47.992;11.864;2023-02-16T01:37:12;38.59;33.90;40.23;;
46749;Laerm;33775;47.992;11.864;2023-02-16T01:39:38;38.48;33.44;40.23;;
46749;Laerm;33775;47.992;11.864;2023-02-16T01:42:11;38.53;32.93;40.23;;
46749;Laerm;33775;47.992;11.864;2023-02-16T01:44:40;38.56;33.90;40.23;;
46749;Laerm;33775;47.992;11.864;2023-02-16T01:49:50;38.61;33.90;40.33;;
46749;Laerm;33775;47.992;11.864;2023-02-16T01:55:12;38.68;35.66;40.33;;
46749;Laerm;33775;47.992;11.864;2023-02-16T01:57:51;38.65;34.31;40.43;;
46749;Laerm;33775;47.992;11.864;2023-02-16T02:02:45;38.45;33.90;40.53;;
46749;Laerm;33775;47.992;11.864;2023-02-16T02:10:40;38.48;34.31;40.33;;
46749;Laerm;33775;47.992;11.864;2023-02-16T02:13:09;38.66;35.36;40.13;;
46749;Laerm;33775;47.992;11.864;2023-02-16T02:15:38;38.65;33.90;40.23;;
46749;Laerm;33775;47.992;11.864;2023-02-16T02:18:03;38.62;35.66;40.23;;
46749;Laerm;33775;47.992;11.864;2023-02-16T02:31:20;38.48;33.90;40.43;;
46749;Laerm;33775;47.992;11.864;2023-02-16T02:34:03;38.41;33.44;40.53;;
46749;Laerm;33775;47.992;11.864;2023-02-16T02:36:44;38.40;32.35;40.13;;
46749;Laerm;33775;47.992;11.864;2023-02-16T02:44:28;38.38;33.90;40.23;;
46749;Laerm;33775;47.992;11.864;2023-02-16T02:46:53;38.51;32.93;40.33;;
46749;Laerm;33775;47.992;11.864;2023-02-16T02:49:19;38.34;32.00;40.33;;
46749;Laerm;33775;47.992;11.864;2023-02-16T02:51:44;38.17;32.35;40.03;;
46749;Laerm;33775;47.992;11.864;2023-02-16T02:54:13;38.41;33.44;40.13;;
46749;Laerm;33775;47.992;11.864;2023-02-16T02:57:01;38.49;32.93;40.13;;
46749;Laerm;33775;47.992;11.864;2023-02-16T03:00:20;38.50;32.35;40.33;;
46749;Laerm;33775;47.992;11.864;2023-02-16T03:02:58;38.64;34.34;40.23;;
46749;Laerm;33775;47.992;11.864;2023-02-16T03:05:25;38.71;35.36;40.23;;
46749;Laerm;33775;47.992;11.864;2023-02-16T03:07:51;38.72;36.20;40.33;;
46749;Laerm;33775;47.992;11.864;2023-02-16T03:10:22;38.69;36.20;40.33;;
46749;Laerm;33775;47.992;11.864;2023-02-16T03:13:12;38.64;35.04;40.33;;
46749;Laerm;33775;47.992;11.864;2023-02-16T03:15:39;38.61;35.94;40.13;;
46749;Laerm;33775;47.992;11.864;2023-02-16T03:18:05;38.59;35.04;40.13;;
46749;Laerm;33775;47.992;11.864;2023-02-16T03:20:50;38.59;35.36;40.23;;
46749;Laerm;33775;47.992;11.864;2023-02-16T03:23:34;38.58;35.36;40.13;;
46749;Laerm;33775;47.992;11.864;2023-02-16T03:26:18;38.59;34.31;40.13;;
46749;Laerm;33775;47.992;11.864;2023-02-16T03:29:02;38.58;35.66;40.23;;
46749;Laerm;33775;47.992;11.864;2023-02-16T03:31:49;38.49;35.36;40.03;;
46749;Laerm;33775;47.992;11.864;2023-02-16T03:34:15;38.44;34.69;40.03;;
46749;Laerm;33775;47.992;11.864;2023-02-16T03:36:42;38.27;33.09;40.03;;
46749;Laerm;33775;47.992;11.864;2023-02-16T03:39:08;38.27;34.31;40.13;;
46749;Laerm;33775;47.992;11.864;2023-02-16T03:41:38;38.43;32.93;40.23;;
46749;Laerm;33775;47.992;11.864;2023-02-16T03:44:03;38.63;34.69;40.23;;
46749;Laerm;33775;47.992;11.864;2023-02-16T03:46:29;38.56;34.69;40.13;;
46749;Laerm;33775;47.992;11.864;2023-02-16T03:48:54;38.57;33.90;40.23;;
46749;Laerm;33775;47.992;11.864;2023-02-16T03:51:19;38.50;34.31;40.03;;
46749;Laerm;33775;47.992;11.864;2023-02-16T03:53:45;38.45;33.90;40.43;;
46749;Laerm;33775;47.992;11.864;2023-02-16T03:56:10;38.46;35.04;40.13;;
46749;Laerm;33775;47.992;11.864;2023-02-16T03:58:35;38.51;30.89;40.53;;
46749;Laerm;33775;47.992;11.864;2023-02-16T04:01:00;38.63;35.36;40.23;;
46749;Laerm;33775;47.992;11.864;2023-02-16T04:03:26;38.59;35.04;40.13;;
46749;Laerm;33775;47.992;11.864;2023-02-16T04:05:51;38.59;35.66;40.13;;
46749;Laerm;33775;47.992;11.864;2023-02-16T04:08:16;38.56;35.36;40.23;;
46749;Laerm;33775;47.992;11.864;2023-02-16T04:10:42;38.55;35.04;40.23;;
46749;Laerm;33775;47.992;11.864;2023-02-16T04:13:07;38.56;35.04;40.23;;
46749;Laerm;33775;47.992;11.864;2023-02-16T04:15:32;38.58;33.90;40.13;;
46749;Laerm;33775;47.992;11.864;2023-02-16T04:17:58;38.54;34.69;40.13;;
46749;Laerm;33775;47.992;11.864;2023-02-16T04:20:25;38.59;31.68;40.13;;
46749;Laerm;33775;47.992;11.864;2023-02-16T04:22:51;38.50;33.44;40.23;;
46749;Laerm;33775;47.992;11.864;2023-02-16T04:25:17;38.38;34.31;40.13;;
46749;Laerm;33775;47.992;11.864;2023-02-16T04:27:43;38.43;32.93;40.13;;
46749;Laerm;33775;47.992;11.864;2023-02-16T04:30:10;38.60;32.93;40.13;;
46749;Laerm;33775;47.992;11.864;2023-02-16T04:32:36;38.64;35.66;40.23;;
46749;Laerm;33775;47.992;11.864;2023-02-16T04:35:01;38.65;35.36;40.23;;
46749;Laerm;33775;47.992;11.864;2023-02-16T04:37:26;38.63;34.31;40.33;;
46749;Laerm;33775;47.992;11.864;2023-02-16T04:39:51;38.55;35.04;40.33;;
46749;Laerm;33775;47.992;11.864;2023-02-16T04:42:17;38.57;34.69;40.03;;
46749;Laerm;33775;47.992;11.864;2023-02-16T04:44:42;38.68;35.36;40.23;;
46749;Laerm;33775;47.992;11.864;2023-02-16T04:47:07;38.66;35.04;40.23;;
46749;Laerm;33775;47.992;11.864;2023-02-16T04:49:32;38.61;33.90;40.43;;
46749;Laerm;33775;47.992;11.864;2023-02-16T04:51:57;38.54;36.45;40.43;;
46749;Laerm;33775;47.992;11.864;2023-02-16T04:54:24;38.50;35.94;40.13;;
46749;Laerm;33775;47.992;11.864;2023-02-16T04:56:50;38.50;33.90;40.03;;
46749;Laerm;33775;47.992;11.864;2023-02-16T04:59:15;38.47;34.69;40.23;;
46749;Laerm;33775;47.992;11.864;2023-02-16T05:01:40;38.51;34.31;40.13;;
46749;Laerm;33775;47.992;11.864;2023-02-16T05:04:06;38.58;35.04;40.13;;
46749;Laerm;33775;47.992;11.864;2023-02-16T05:06:33;38.61;34.69;40.33;;
46749;Laerm;33775;47.992;11.864;2023-02-16T05:08:58;38.61;35.04;40.23;;
46749;Laerm;33775;47.992;11.864;2023-02-16T05:11:23;38.59;34.69;40.23;;
46749;Laerm;33775;47.992;11.864;2023-02-16T05:14:10;38.58;35.66;40.33;;
46749;Laerm;33775;47.992;11.864;2023-02-16T05:16:59;38.58;33.90;40.13;;
46749;Laerm;33775;47.992;11.864;2023-02-16T05:19:24;38.57;34.69;40.53;;
46749;Laerm;33775;47.992;11.864;2023-02-16T05:21:49;38.59;36.20;40.13;;
46749;Laerm;33775;47.992;11.864;2023-02-16T05:24:14;38.60;34.69;40.23;;
46749;Laerm;33775;47.992;11.864;2023-02-16T05:26:40;38.62;35.66;40.18;;
46749;Laerm;33775;47.992;11.864;2023-02-16T05:29:05;38.59;35.04;40.13;;
46749;Laerm;33775;47.992;11.864;2023-02-16T05:31:30;38.58;34.69;40.33;;
46749;Laerm;33775;47.992;11.864;2023-02-16T05:33:56;38.57;35.66;40.13;;
46749;Laerm;33775;47.992;11.864;2023-02-16T05:36:21;38.52;33.90;40.13;;
46749;Laerm;33775;47.992;11.864;2023-02-16T05:38:46;38.52;34.69;40.33;;
46749;Laerm;33775;47.992;11.864;2023-02-16T05:41:11;38.49;33.90;40.03;;
46749;Laerm;33775;47.992;11.864;2023-02-16T05:43:47;38.45;32.93;40.43;;
46749;Laerm;33775;47.992;11.864;2023-02-16T05:46:13;38.48;35.36;40.03;;
46749;Laerm;33775;47.992;11.864;2023-02-16T05:48:38;38.62;34.31;40.33;;
46749;Laerm;33775;47.992;11.864;2023-02-16T05:51:03;38.69;34.31;40.23;;
46749;Laerm;33775;47.992;11.864;2023-02-16T05:53:28;38.66;35.94;40.23;;
46749;Laerm;33775;47.992;11.864;2023-02-16T05:55:53;38.63;34.31;40.13;;
46749;Laerm;33775;47.992;11.864;2023-02-16T05:58:18;38.59;34.69;40.13;;
46749;Laerm;33775;47.992;11.864;2023-02-16T06:00:44;38.57;35.04;40.23;;
46749;Laerm;33775;47.992;11.864;2023-02-16T06:03:09;38.59;36.20;40.23;;
46749;Laerm;33775;47.992;11.864;2023-02-16T06:05:34;38.63;35.94;40.23;;
46749;Laerm;33775;47.992;11.864;2023-02-16T06:07:59;38.64;33.90;40.23;;
46749;Laerm;33775;47.992;11.864;2023-02-16T06:10:24;38.60;33.44;40.23;;
46749;Laerm;33775;47.992;11.864;2023-02-16T06:12:50;38.59;34.69;40.13;;
46749;Laerm;33775;47.992;11.864;2023-02-16T06:15:16;38.62;35.66;40.23;;
46749;Laerm;33775;47.992;11.864;2023-02-16T06:17:41;38.60;36.20;40.23;;
46749;Laerm;33775;47.992;11.864;2023-02-16T06:20:08;38.57;35.66;40.13;;
46749;Laerm;33775;47.992;11.864;2023-02-16T06:22:34;38.59;36.45;40.33;;
46749;Laerm;33775;47.992;11.864;2023-02-16T06:24:59;38.57;35.94;40.18;;
46749;Laerm;33775;47.992;11.864;2023-02-16T06:27:24;38.51;35.36;40.23;;
46749;Laerm;33775;47.992;11.864;2023-02-16T06:29:49;38.56;36.20;40.23;;
46749;Laerm;33775;47.992;11.864;2023-02-16T06:32:14;38.56;35.04;40.13;;
46749;Laerm;33775;47.992;11.864;2023-02-16T06:34:39;38.59;35.36;40.13;;
46749;Laerm;33775;47.992;11.864;2023-02-16T06:37:05;38.57;35.94;40.13;;
46749;Laerm;33775;47.992;11.864;2023-02-16T06:39:30;38.58;35.66;40.23;;
46749;Laerm;33775;47.992;11.864;2023-02-16T06:41:55;38.55;35.66;40.03;;
46749;Laerm;33775;47.992;11.864;2023-02-16T06:44:20;38.52;36.20;40.13;;
46749;Laerm;33775;47.992;11.864;2023-02-16T06:46:46;38.54;35.31;40.13;;
46749;Laerm;33775;47.992;11.864;2023-02-16T06:49:12;38.54;34.31;40.03;;
46749;Laerm;33775;47.992;11.864;2023-02-16T06:51:37;38.58;36.20;40.03;;
46749;Laerm;33775;47.992;11.864;2023-02-16T06:54:03;38.57;36.45;40.13;;
46749;Laerm;33775;47.992;11.864;2023-02-16T06:56:28;38.52;34.69;40.03;;
46749;Laerm;33775;47.992;11.864;2023-02-16T06:58:53;38.49;35.04;40.13;;
46749;Laerm;33775;47.992;11.864;2023-02-16T07:01:18;38.47;34.69;40.13;;
46749;Laerm;33775;47.992;11.864;2023-02-16T07:03:47;38.44;35.66;40.03;;
46749;Laerm;33775;47.992;11.864;2023-02-16T07:06:12;38.37;34.31;40.23;;
46749;Laerm;33775;47.992;11.864;2023-02-16T07:08:37;38.33;33.90;39.92;;
46749;Laerm;33775;47.992;11.864;2023-02-16T07:11:03;38.24;34.69;39.81;;
46749;Laerm;33775;47.992;11.864;2023-02-16T07:13:28;38.21;33.44;39.70;;
46749;Laerm;33775;47.992;11.864;2023-02-16T07:15:53;38.14;34.69;39.89;;
46749;Laerm;33775;47.992;11.864;2023-02-16T07:18:18;38.17;33.44;39.92;;
46749;Laerm;33775;47.992;11.864;2023-02-16T07:20:43;38.16;33.90;39.92;;
46749;Laerm;33775;47.992;11.864;2023-02-16T07:23:09;38.13;33.44;39.92;;
46749;Laerm;33775;47.992;11.864;2023-02-16T07:25:34;37.98;33.44;39.81;;
46749;Laerm;33775;47.992;11.864;2023-02-16T07:27:59;37.86;32.00;39.81;;
46749;Laerm;33775;47.992;11.864;2023-02-16T07:30:24;37.63;30.89;39.70;;
46749;Laerm;33775;47.992;11.864;2023-02-16T07:32:49;36.50;26.91;39.81;;
46749;Laerm;33775;47.992;11.864;2023-02-16T07:35:14;36.37;29.92;39.70;;
46749;Laerm;33775;47.992;11.864;2023-02-16T07:37:40;36.61;30.89;39.70;;
46749;Laerm;33775;47.992;11.864;2023-02-16T07:40:05;36.61;29.92;39.92;;
46749;Laerm;33775;47.992;11.864;2023-02-16T07:42:31;36.58;29.92;39.46;;
46749;Laerm;33775;47.992;11.864;2023-02-16T07:44:57;36.60;29.92;39.81;;
46749;Laerm;33775;47.992;11.864;2023-02-16T07:47:22;36.59;28.67;39.70;;
46749;Laerm;33775;47.992;11.864;2023-02-16T07:49:47;36.55;29.92;39.92;;
46749;Laerm;33775;47.992;11.864;2023-02-16T07:52:12;36.58;29.92;39.81;;
46749;Laerm;33775;47.992;11.864;2023-02-16T07:54:38;36.53;29.92;39.34;;
46749;Laerm;33775;47.992;11.864;2023-02-16T07:57:03;36.57;29.92;39.46;;
46749;Laerm;33775;47.992;11.864;2023-02-16T07:59:28;36.54;29.92;39.81;;
46749;Laerm;33775;47.992;11.864;2023-02-16T08:01:53;36.54;29.92;39.34;;
46749;Laerm;33775;47.992;11.864;2023-02-16T08:04:19;36.56;30.89;39.92;;
46749;Laerm;33775;47.992;11.864;2023-02-16T08:06:44;36.52;29.92;39.58;;
46749;Laerm;33775;47.992;11.864;2023-02-16T08:09:11;36.54;29.92;39.58;;
46749;Laerm;33775;47.992;11.864;2023-02-16T08:11:36;36.55;30.89;39.92;;
46749;Laerm;33775;47.992;11.864;2023-02-16T08:14:01;36.53;30.89;40.13;;
46749;Laerm;33775;47.992;11.864;2023-02-16T08:16:27;36.51;29.92;40.03;;
46749;Laerm;33775;47.992;11.864;2023-02-16T08:18:54;36.52;30.89;39.70;;
46749;Laerm;33775;47.992;11.864;2023-02-16T08:21:20;36.51;30.89;39.92;;
46749;Laerm;33775;47.992;11.864;2023-02-16T08:23:47;36.51;29.92;39.70;;
46749;Laerm;33775;47.992;11.864;2023-02-16T08:26:16;36.56;28.67;40.03;;
46749;Laerm;33775;47.992;11.864;2023-02-16T08:28:42;36.60;30.89;39.21;;
46749;Laerm;33775;47.992;11.864;2023-02-16T08:31:10;36.68;29.92;39.92;;
46749;Laerm;33775;47.992;11.864;2023-02-16T08:33:35;36.67;30.89;39.46;;
46749;Laerm;33775;47.992;11.864;2023-02-16T08:36:00;36.63;30.89;39.58;;
46749;Laerm;33775;47.992;11.864;2023-02-16T08:38:27;36.63;29.57;39.58;;
46749;Laerm;33775;47.992;11.864;2023-02-16T08:40:52;36.71;30.89;39.81;;
46749;Laerm;33775;47.992;11.864;2023-02-16T08:43:17;36.70;30.89;39.58;;
46749;Laerm;33775;47.992;11.864;2023-02-16T08:45:43;36.73;29.92;39.58;;
46749;Laerm;33775;47.992;11.864;2023-02-16T08:48:09;36.73;30.89;40.03;;
46749;Laerm;33775;47.992;11.864;2023-02-16T08:50:35;36.73;28.67;39.92;;
46749;Laerm;33775;47.992;11.864;2023-02-16T08:53:00;36.68;29.92;39.70;;
46749;Laerm;33775;47.992;11.864;2023-02-16T08:55:26;36.73;30.89;40.08;;
46749;Laerm;33775;47.992;11.864;2023-02-16T08:57:51;36.74;30.89;40.13;;
46749;Laerm;33775;47.992;11.864;2023-02-16T09:00:16;36.74;26.91;40.23;;
46749;Laerm;33775;47.992;11.864;2023-02-16T09:02:59;36.76;29.92;39.35;;
46749;Laerm;33775;47.992;11.864;2023-02-16T09:05:25;36.75;30.89;39.81;;
46749;Laerm;33775;47.992;11.864;2023-02-16T09:07:52;36.73;30.89;39.58;;
46749;Laerm;33775;47.992;11.864;2023-02-16T09:10:17;36.74;29.92;40.03;;
46749;Laerm;33775;47.992;11.864;2023-02-16T09:12:43;36.73;29.92;39.92;;
46749;Laerm;33775;47.992;11.864;2023-02-16T09:15:12;36.74;31.68;39.92;;
46749;Laerm;33775;47.992;11.864;2023-02-16T09:17:38;36.73;30.89;39.58;;
46749;Laerm;33775;47.992;11.864;2023-02-16T09:20:03;36.76;28.67;39.70;;
46749;Laerm;33775;47.992;11.864;2023-02-16T09:22:28;36.74;29.92;39.58;;
46749;Laerm;33775;47.992;11.864;2023-02-16T09:24:54;36.71;30.54;39.70;;
46749;Laerm;33775;47.992;11.864;2023-02-16T09:27:19;36.66;30.89;39.58;;
46749;Laerm;33775;47.992;11.864;2023-02-16T09:29:44;36.62;28.67;39.58;;
46749;Laerm;33775;47.992;11.864;2023-02-16T09:32:09;36.65;30.89;39.81;;
46749;Laerm;33775;47.992;11.864;2023-02-16T09:34:35;36.62;30.89;39.58;;
46749;Laerm;33775;47.992;11.864;2023-02-16T09:37:00;36.67;31.68;39.34;;
46749;Laerm;33775;47.992;11.864;2023-02-16T09:39:25;36.78;31.68;39.58;;
46749;Laerm;33775;47.992;11.864;2023-02-16T09:42:01;36.81;32.35;39.81;;
46749;Laerm;33775;47.992;11.864;2023-02-16T09:47:11;36.88;32.93;39.81;;
46749;Laerm;33775;47.992;11.864;2023-02-16T09:49:41;36.93;31.68;40.53;;
46749;Laerm;33775;47.992;11.864;2023-02-16T10:02:41;36.98;30.89;40.03;;
46749;Laerm;33775;47.992;11.864;2023-02-16T10:05:15;37.03;31.68;39.92;;
46749;Laerm;33775;47.992;11.864;2023-02-16T10:10:13;37.04;32.93;39.70;;
46749;Laerm;33775;47.992;11.864;2023-02-16T10:12:41;37.07;31.68;39.58;;
46749;Laerm;33775;47.992;11.864;2023-02-16T10:15:18;37.03;32.35;40.33;;
46749;Laerm;33775;47.992;11.864;2023-02-16T10:17:47;37.09;32.93;40.03;;
46749;Laerm;33775;47.992;11.864;2023-02-16T10:20:15;37.12;32.93;39.92;;
46749;Laerm;33775;47.992;11.864;2023-02-16T10:22:48;37.14;31.68;40.03;;
46749;Laerm;33775;47.992;11.864;2023-02-16T10:27:42;37.15;31.68;39.70;;
46749;Laerm;33775;47.992;11.864;2023-02-16T10:30:12;37.17;32.93;40.23;;
46749;Laerm;33775;47.992;11.864;2023-02-16T10:32:41;37.18;32.35;40.43;;
46749;Laerm;33775;47.992;11.864;2023-02-16T10:35:13;37.18;32.35;40.33;;
46749;Laerm;33775;47.992;11.864;2023-02-16T10:38:01;37.18;31.68;40.13;;
46749;Laerm;33775;47.992;11.864;2023-02-16T10:40:37;37.21;32.93;40.03;;
46749;Laerm;33775;47.992;11.864;2023-02-16T10:45:36;37.25;32.93;40.23;;
46749;Laerm;33775;47.992;11.864;2023-02-16T10:48:07;37.24;32.93;40.13;;
46749;Laerm;33775;47.992;11.864;2023-02-16T10:53:06;37.22;33.44;40.03;;
46749;Laerm;33775;47.992;11.864;2023-02-16T10:55:33;37.25;33.44;40.33;;
46749;Laerm;33775;47.992;11.864;2023-02-16T10:57:59;37.24;32.93;40.03;;
46749;Laerm;33775;47.992;11.864;2023-02-16T11:00:28;37.29;32.93;40.53;;
46749;Laerm;33775;47.992;11.864;2023-02-16T11:02:57;37.28;32.35;40.03;;
46749;Laerm;33775;47.992;11.864;2023-02-16T11:05:27;37.26;32.35;40.33;;
46749;Laerm;33775;47.992;11.864;2023-02-16T11:07:54;37.33;32.93;40.03;;
46749;Laerm;33775;47.992;11.864;2023-02-16T11:10:22;37.31;32.35;39.92;;
46749;Laerm;33775;47.992;11.864;2023-02-16T11:12:57;37.28;32.93;40.43;;
46749;Laerm;33775;47.992;11.864;2023-02-16T11:15:23;37.29;32.93;40.03;;
46749;Laerm;33775;47.992;11.864;2023-02-16T11:20:30;37.34;33.44;39.92;;
46749;Laerm;33775;47.992;11.864;2023-02-16T11:23:12;37.53;33.44;40.33;;
46749;Laerm;33775;47.992;11.864;2023-02-16T11:25:37;37.57;32.93;40.53;;
46749;Laerm;33775;47.992;11.864;2023-02-16T11:28:03;37.53;32.93;40.80;;
46749;Laerm;33775;47.992;11.864;2023-02-16T11:30:33;37.58;32.35;40.43;;
46749;Laerm;33775;47.992;11.864;2023-02-16T11:33:03;37.52;33.90;40.98;;
46749;Laerm;33775;47.992;11.864;2023-02-16T11:35:30;37.55;32.35;40.43;;
46749;Laerm;33775;47.992;11.864;2023-02-16T11:37:56;37.53;33.44;40.53;;
46749;Laerm;33775;47.992;11.864;2023-02-16T11:40:23;37.48;32.35;40.23;;
46749;Laerm;33775;47.992;11.864;2023-02-16T11:42:50;37.46;32.35;40.43;;
46749;Laerm;33775;47.992;11.864;2023-02-16T11:45:29;37.33;33.44;39.92;;
46749;Laerm;33775;47.992;11.864;2023-02-16T11:47:57;37.32;31.68;40.03;;
46749;Laerm;33775;47.992;11.864;2023-02-16T11:50:26;37.36;31.68;40.43;;
46749;Laerm;33775;47.992;11.864;2023-02-16T11:52:54;37.29;32.35;40.23;;
46749;Laerm;33775;47.992;11.864;2023-02-16T11:57:45;37.34;32.93;40.43;;
46749;Laerm;33775;47.992;11.864;2023-02-16T12:00:18;37.30;32.93;40.23;;
46749;Laerm;33775;47.992;11.864;2023-02-16T12:05:25;37.38;32.35;39.92;;
46749;Laerm;33775;47.992;11.864;2023-02-16T12:10:43;37.43;33.44;40.33;;
46749;Laerm;33775;47.992;11.864;2023-02-16T12:13:17;37.39;29.92;40.13;;
46749;Laerm;33775;47.992;11.864;2023-02-16T12:18:35;37.55;32.35;40.43;;
46749;Laerm;33775;47.992;11.864;2023-02-16T12:24:04;37.51;32.93;40.53;;
46749;Laerm;33775;47.992;11.864;2023-02-16T12:26:39;37.55;32.93;40.71;;
46749;Laerm;33775;47.992;11.864;2023-02-16T12:41:55;37.41;32.35;40.33;;
46749;Laerm;33775;47.992;11.864;2023-02-16T12:47:00;37.24;32.35;40.53;;
46749;Laerm;33775;47.992;11.864;2023-02-16T12:49:35;37.21;32.35;39.92;;
46749;Laerm;33775;47.992;11.864;2023-02-16T12:52:08;37.21;32.35;40.03;;
46749;Laerm;33775;47.992;11.864;2023-02-16T12:54:43;37.20;31.68;39.81;;
46749;Laerm;33775;47.992;11.864;2023-02-16T12:57:13;37.18;28.67;40.23;;
46749;Laerm;33775;47.992;11.864;2023-02-16T12:59:56;37.17;32.35;40.89;;
46749;Laerm;33775;47.992;11.864;2023-02-16T13:02:29;37.24;29.92;40.13;;
46749;Laerm;33775;47.992;11.864;2023-02-16T13:04:57;37.33;29.92;40.23;;
46749;Laerm;33775;47.992;11.864;2023-02-16T13:07:28;37.30;29.92;40.23;;
46749;Laerm;33775;47.992;11.864;2023-02-16T13:12:37;37.23;26.91;40.27;;
46749;Laerm;33775;47.992;11.864;2023-02-16T13:15:15;37.03;23.90;40.13;;
46749;Laerm;33775;47.992;11.864;2023-02-16T13:17:44;37.29;29.92;40.43;;
46749;Laerm;33775;47.992;11.864;2023-02-16T13:20:14;37.29;32.35;40.13;;
46749;Laerm;33775;47.992;11.864;2023-02-16T13:22:43;37.21;28.67;40.23;;
46749;Laerm;33775;47.992;11.864;2023-02-16T13:27:46;37.14;23.90;40.08;;
46749;Laerm;33775;47.992;11.864;2023-02-16T13:35:28;37.23;28.67;40.23;;
46749;Laerm;33775;47.992;11.864;2023-02-16T13:45:52;37.18;26.91;40.33;;
46749;Laerm;33775;47.992;11.864;2023-02-16T13:48:23;37.31;30.89;40.71;;
46749;Laerm;33775;47.992;11.864;2023-02-16T13:51:08;37.28;29.92;40.13;;
46749;Laerm;33775;47.992;11.864;2023-02-16T13:53:36;37.37;32.35;40.13;;
46749;Laerm;33775;47.992;11.864;2023-02-16T13:56:13;37.32;30.89;40.23;;
46749;Laerm;33775;47.992;11.864;2023-02-16T13:58:38;37.32;30.89;40.13;;
46749;Laerm;33775;47.992;11.864;2023-02-16T14:03:48;37.26;5.00;40.23;;
46749;Laerm;33775;47.992;11.864;2023-02-16T14:06:27;37.32;31.68;39.92;;
46749;Laerm;33775;47.992;11.864;2023-02-16T14:16:51;37.26;32.35;40.23;;
46749;Laerm;33775;47.992;11.864;2023-02-16T14:19:20;37.26;30.89;40.23;;
46749;Laerm;33775;47.992;11.864;2023-02-16T14:21:47;37.27;31.68;40.71;;
46749;Laerm;33775;47.992;11.864;2023-02-16T14:24:26;37.27;32.35;40.89;;
46749;Laerm;33775;47.992;11.864;2023-02-16T14:29:18;37.28;32.00;40.23;;
46749;Laerm;33775;47.992;11.864;2023-02-16T14:32:15;37.21;32.35;39.92;;
46749;Laerm;33775;47.992;11.864;2023-02-16T14:34:35;37.22;31.68;40.53;;
46749;Laerm;33775;47.992;11.864;2023-02-16T14:39:53;37.26;32.35;40.13;;
46749;Laerm;33775;47.992;11.864;2023-02-16T14:42:30;37.23;31.68;40.33;;
46749;Laerm;33775;47.992;11.864;2023-02-16T14:45:09;37.29;31.68;40.03;;
46749;Laerm;33775;47.992;11.864;2023-02-16T14:47:46;37.22;30.89;40.23;;
46749;Laerm;33775;47.992;11.864;2023-02-16T14:52:56;37.26;32.35;40.23;;
46749;Laerm;33775;47.992;11.864;2023-02-16T14:58:01;37.24;29.92;40.23;;
46749;Laerm;33775;47.992;11.864;2023-02-16T15:03:03;37.20;32.35;39.70;;
46749;Laerm;33775;47.992;11.864;2023-02-16T15:05:37;37.19;31.68;40.13;;
46749;Laerm;33775;47.992;11.864;2023-02-16T15:08:07;37.20;32.35;40.13;;
46749;Laerm;33775;47.992;11.864;2023-02-16T15:10:34;37.21;30.89;40.62;;
46749;Laerm;33775;47.992;11.864;2023-02-16T15:13:01;37.20;30.89;40.03;;
46749;Laerm;33775;47.992;11.864;2023-02-16T15:15:38;37.20;32.35;39.81;;
46749;Laerm;33775;47.992;11.864;2023-02-16T15:18:04;37.18;32.93;40.13;;
46749;Laerm;33775;47.992;11.864;2023-02-16T15:20:35;37.16;28.67;40.23;;
46749;Laerm;33775;47.992;11.864;2023-02-16T15:23:03;37.17;29.92;39.92;;
46749;Laerm;33775;47.992;11.864;2023-02-16T15:27:59;37.12;31.68;40.53;;
46749;Laerm;33775;47.992;11.864;2023-02-16T15:30:29;37.08;30.89;40.03;;
46749;Laerm;33775;47.992;11.864;2023-02-16T15:33:02;37.08;31.68;40.23;;
46749;Laerm;33775;47.992;11.864;2023-02-16T15:35:38;37.03;32.93;40.03;;
46749;Laerm;33775;47.992;11.864;2023-02-16T15:38:05;37.00;29.57;40.03;;
46749;Laerm;33775;47.992;11.864;2023-02-16T15:40:32;36.97;30.89;40.13;;
46749;Laerm;33775;47.992;11.864;2023-02-16T15:43:01;36.94;30.89;39.70;;
46749;Laerm;33775;47.992;11.864;2023-02-16T15:45:31;36.94;30.89;39.92;;
46749;Laerm;33775;47.992;11.864;2023-02-16T15:50:49;36.93;31.33;40.03;;
46749;Laerm;33775;47.992;11.864;2023-02-16T15:53:21;36.94;31.68;40.23;;